Wolcott, IN (47995)

11:17 PM EDT on June 28, 2017 (GMT -0400)
Princeton Township | | Change Station

Elev 716 ft 40.76 °N, 87.02 °W | Updated 17 seconds ago

Mostly Cloudy
Mostly Cloudy
71.1 °F
Feels Like 73 °F
N
8.1
Wind Variable Wind from South
Gusts 12.1 mph

Today
High -- | Low -- °F
--% Chance of Precip.
Yesterday
High -- | Low -- °F
Precip. -- in
Pressure 29.89 in
Visibility 10.0 miles
Clouds Scattered Clouds 12000 ft
Heat Index 73 °F
Dew Point 63 °F
Humidity 75%
Rainfall 0.00 in
Snow Depth Not available.
6:19 AM 9:23 PM
Waxing Crescent, 31% visible
METAR KRZL 290315Z AUTO 17012G16KT 10SM SCT120 23/13 A2989 RMK AO2 LTG DSNT N AND NW
Pressure 29.89 in
Visibility 10.0 miles
Clouds Scattered Clouds 12000 ft
Heat Index 73 °F
Dew Point 63 °F
Humidity 75%
Rainfall 0.00 in
Snow Depth Not available.
6:19 AM 9:23 PM
Waxing Crescent, 31% visible
METAR KRZL 290315Z AUTO 17012G16KT 10SM SCT120 23/13 A2989 RMK AO2 LTG DSNT N AND NW

Get Severe Weather Alerts

Thanks for signing up!

Be on the lookout for a verification email in your inbox.

You'll start receiving the daily forecast at 6 AM.

×

10-Day Weather Forecast

Almanac

Astronomy

Jun. 28, 2017 Rise Set
Actual Time
Civil Twilight
Nautical Twilight
Astronomical Twilight
Moon
Length of Visible Light
Length of Day
Tomorrow will be .
, % of the Moon is Illuminated

Today's Extremes

State Highs State Lows

Community

WunderPhotos

Category 6

Welcome to Category 6. This is the collective home for Weather Underground's featured writeups by Dr. Jeff Masters (right), Bob Henson (left), Chris Burt, and other regular contributors.

Nearby

Air Quality

  Air Quality AQ Index Pollutant
Not available.

Snow Depth

Station Depth Elevation

Earthquake Activity

City Distance Mag. Time & Date
Minimum magnitude displayed is 2.5.

Coastal Water Temperatures

Place Temperature

Stations

Nearby Weather Stations

Station Location Temp. Windchill Dew Point Humidity Wind Precip. Elev Updated Type
                   

Watches & Warnings

There are currently no watches in effect.